X  Blizu METAR Podaci o vazduhoplovstvu     KVAD Moody Air Force Base
Temperatura
79°F Temperatura
64°F Tačka Rose
61% Vlaga



Vetar
0 MPS
0 KM/S
0 M/S
0 Čvorovi



Tiho
S
Trenutna situacija

Vedro Vedro
Vazdušni pritisak 1010.82 (hPa) - 29.85 (inHg)
Vidljivost 10 (Milje) - 16.1 (km)
Aerodrom
Aerodromski kod. KVAD

Lokacija: Moody Air Force Base
Udaljenost: 5 (mi)

Metar:
KVAD 262355Z AUTO 00000KT 10SM CLR 26/18 A2985 RMK AO2 SLP109 T02580182 10329 20258 53009 $

Vreme: 26-09-2022 19:55 EDT